Voidomatis — A8FX2 — position and weather

sailwx.info

Track history (hours):
 
Tides and Currents Weather Stations Pressure Air Temp Water Temp Dewpoint Dewpoint Depression Visibility Wind Speed Wind Dir Waves Ship Positions

Voidomatis

Last reported at 2015-Jan-28 15:33 UTC. Time now 2015-Mar-31 08:28 UTC.
Position N 29°43' W 095°01'.
Warning: this ship's position is months out of date.

Length 213 m; draft 10.8 m.

Type: Tanker. MMSI: 636012508.

Date/timePositionNaut miles runAvg speedWind from/ knotsBaromVisibWave heightAir tempDewpointWater temp
2015-Jan-28 15:33N 29°43' W 095°01'5 4.8
2015-Jan-28 14:33N 29°45' W 095°06'0 0.3
2015-Jan-28 13:27N 29°45' W 095°06'0 0.0
2015-Jan-28 12:33N 29°45' W 095°06'0 0.0
2015-Jan-28 11:33N 29°45' W 095°06'0 0.0
2015-Jan-28 10:33N 29°45' W 095°06'0 0.0
2015-Jan-28 09:33N 29°45' W 095°06'0 0.0
2015-Jan-28 08:33N 29°45' W 095°06'0 0.0
2015-Jan-28 07:33N 29°45' W 095°06'0 0.0
2015-Jan-28 06:33N 29°45' W 095°06'0 0.0
2015-Jan-28 05:33N 29°45' W 095°06'0 0.0
2015-Jan-28 04:33N 29°45' W 095°06'0 0.0
2015-Jan-28 03:33N 29°45' W 095°06'0 0.0
2015-Jan-28 02:27N 29°45' W 095°06'0 0.0
2015-Jan-28 01:33N 29°45' W 095°06'0 0.0
2015-Jan-28 00:33N 29°45' W 095°06'0 0.0
2015-Jan-27 23:30N 29°45' W 095°06'0 0.0
2015-Jan-27 22:30N 29°45' W 095°06'0 0.0
2015-Jan-27 21:33N 29°45' W 095°06'0 0.0
2015-Jan-27 20:30N 29°45' W 095°06'0 0.0
2015-Jan-27 19:27N 29°45' W 095°06'0 0.0
2015-Jan-27 18:33N 29°45' W 095°06'0 0.0
2015-Jan-27 17:33N 29°45' W 095°06'0 0.0
2015-Jan-27 16:33N 29°45' W 095°06'0 0.0
2015-Jan-27 15:33N 29°45' W 095°06'0 0.0
2015-Jan-27 14:33N 29°45' W 095°06'0 0.0
2015-Jan-27 13:24N 29°45' W 095°06'0 0.0
2015-Jan-27 06:24N 29°45' W 095°06'0 0.0
2015-Jan-27 05:33N 29°45' W 095°06'0 0.0
2015-Jan-27 04:33N 29°45' W 095°06'0 0.0
2015-Jan-27 03:33N 29°45' W 095°06'0 0.0
2015-Jan-27 02:33N 29°45' W 095°06'0 0.0
2015-Jan-27 01:33N 29°45' W 095°06'0 0.0
2015-Jan-27 00:33N 29°45' W 095°06'0 0.0
2015-Jan-26 23:33N 29°45' W 095°06'0 0.0
2015-Jan-26 22:33N 29°45' W 095°06'0 0.0
2015-Jan-26 21:33N 29°45' W 095°06'0 0.0
2015-Jan-26 20:33N 29°45' W 095°06'0 0.0
2015-Jan-26 19:33N 29°45' W 095°06'0 0.0
2015-Jan-26 18:30N 29°45' W 095°06'0 0.0
2015-Jan-26 17:33N 29°45' W 095°06'0 0.0
2015-Jan-26 16:30N 29°45' W 095°06'0 0.0
2015-Jan-26 15:33N 29°45' W 095°06'0 0.0
2015-Jan-26 14:33N 29°45' W 095°06'0 0.0
2015-Jan-26 13:17N 29°45' W 095°06'2 3.2
2015-Jan-26 12:32N 29°45' W 095°04'8 8.3
2015-Jan-26 11:33N 29°38' W 094°58'1111.2
2015-Jan-26 10:33N 29°28' W 094°51'0 0.0
2015-Jan-24 07:30N 29°28' W 094°51'1111.6
2015-Jan-24 06:33N 29°37' W 094°58'8 0.9
2015-Jan-23 21:04N 29°44' W 095°03'0 0.0
2015-Jan-23 16:31N 29°44' W 095°03'0 0.0
2015-Jan-23 15:16N 29°44' W 095°03'1 0.0
2015-Jan-22 15:33N 29°44' W 095°02'7 7.2
2015-Jan-22 14:33N 29°38' W 094°58'8 8.4
2015-Jan-22 13:33N 29°31' W 094°53'1510.1
2015-Jan-22 12:07N 29°20' W 094°41'5 9.5
2015-Jan-22 11:33N 29°17' W 094°36'  
2015-Jan-19 16:18N 29°09' W 094°33'0 0.0
2015-Jan-19 15:18N 29°09' W 094°33'0 0.0
2015-Jan-19 08:03N 29°09' W 094°33'0 0.0
2015-Jan-19 05:12N 29°09' W 094°33'  
Track history (hours):
 
Tides and Currents Weather Stations Pressure Air Temp Water Temp Dewpoint Dewpoint Depression Visibility Wind Speed Wind Dir Waves Ship Positions

Voidomatis

Last reported at 2015-Jan-28 15:33 UTC. Time now 2015-Mar-31 08:28 UTC.
Position N 29°43' W 095°01'.
Warning: this ship's position is months out of date.

Length 213 m; draft 10.8 m.

Type: Tanker. MMSI: 636012508.

Date/timePositionNaut miles runAvg speedWind from/ knotsBaromVisibWave heightAir tempDewpointWater temp
2015-Jan-28 15:33N 29°43' W 095°01'5 4.8
2015-Jan-28 14:33N 29°45' W 095°06'0 0.3
2015-Jan-28 13:27N 29°45' W 095°06'0 0.0
2015-Jan-28 12:33N 29°45' W 095°06'0 0.0
2015-Jan-28 11:33N 29°45' W 095°06'0 0.0
2015-Jan-28 10:33N 29°45' W 095°06'0 0.0
2015-Jan-28 09:33N 29°45' W 095°06'0 0.0
2015-Jan-28 08:33N 29°45' W 095°06'0 0.0
2015-Jan-28 07:33N 29°45' W 095°06'0 0.0
2015-Jan-28 06:33N 29°45' W 095°06'0 0.0
2015-Jan-28 05:33N 29°45' W 095°06'0 0.0
2015-Jan-28 04:33N 29°45' W 095°06'0 0.0
2015-Jan-28 03:33N 29°45' W 095°06'0 0.0
2015-Jan-28 02:27N 29°45' W 095°06'0 0.0
2015-Jan-28 01:33N 29°45' W 095°06'0 0.0
2015-Jan-28 00:33N 29°45' W 095°06'0 0.0
2015-Jan-27 23:30N 29°45' W 095°06'0 0.0
2015-Jan-27 22:30N 29°45' W 095°06'0 0.0
2015-Jan-27 21:33N 29°45' W 095°06'0 0.0
2015-Jan-27 20:30N 29°45' W 095°06'0 0.0
2015-Jan-27 19:27N 29°45' W 095°06'0 0.0
2015-Jan-27 18:33N 29°45' W 095°06'0 0.0
2015-Jan-27 17:33N 29°45' W 095°06'0 0.0
2015-Jan-27 16:33N 29°45' W 095°06'0 0.0
2015-Jan-27 15:33N 29°45' W 095°06'0 0.0
2015-Jan-27 14:33N 29°45' W 095°06'0 0.0
2015-Jan-27 13:24N 29°45' W 095°06'0 0.0
2015-Jan-27 06:24N 29°45' W 095°06'0 0.0
2015-Jan-27 05:33N 29°45' W 095°06'0 0.0
2015-Jan-27 04:33N 29°45' W 095°06'0 0.0
2015-Jan-27 03:33N 29°45' W 095°06'0 0.0
2015-Jan-27 02:33N 29°45' W 095°06'0 0.0
2015-Jan-27 01:33N 29°45' W 095°06'0 0.0
2015-Jan-27 00:33N 29°45' W 095°06'0 0.0
2015-Jan-26 23:33N 29°45' W 095°06'0 0.0
2015-Jan-26 22:33N 29°45' W 095°06'0 0.0
2015-Jan-26 21:33N 29°45' W 095°06'0 0.0
2015-Jan-26 20:33N 29°45' W 095°06'0 0.0
2015-Jan-26 19:33N 29°45' W 095°06'0 0.0
2015-Jan-26 18:30N 29°45' W 095°06'0 0.0
2015-Jan-26 17:33N 29°45' W 095°06'0 0.0
2015-Jan-26 16:30N 29°45' W 095°06'0 0.0
2015-Jan-26 15:33N 29°45' W 095°06'0 0.0
2015-Jan-26 14:33N 29°45' W 095°06'0 0.0
2015-Jan-26 13:17N 29°45' W 095°06'2 3.2
2015-Jan-26 12:32N 29°45' W 095°04'8 8.3
2015-Jan-26 11:33N 29°38' W 094°58'1111.2
2015-Jan-26 10:33N 29°28' W 094°51'0 0.0
2015-Jan-24 07:30N 29°28' W 094°51'1111.6
2015-Jan-24 06:33N 29°37' W 094°58'8 0.9
2015-Jan-23 21:04N 29°44' W 095°03'0 0.0
2015-Jan-23 16:31N 29°44' W 095°03'0 0.0
2015-Jan-23 15:16N 29°44' W 095°03'1 0.0
2015-Jan-22 15:33N 29°44' W 095°02'7 7.2
2015-Jan-22 14:33N 29°38' W 094°58'8 8.4
2015-Jan-22 13:33N 29°31' W 094°53'1510.1
2015-Jan-22 12:07N 29°20' W 094°41'5 9.5
2015-Jan-22 11:33N 29°17' W 094°36'  
2015-Jan-19 16:18N 29°09' W 094°33'0 0.0
2015-Jan-19 15:18N 29°09' W 094°33'0 0.0
2015-Jan-19 08:03N 29°09' W 094°33'0 0.0
2015-Jan-19 05:12N 29°09' W 094°33'  

Dump ship's entire track history